createdAt,value
2018-03-28T00:01:03.057Z,8.47
2018-03-28T00:03:28.836Z,8.48
2018-03-28T00:05:54.591Z,8.47
2018-03-28T00:08:21.040Z,8.51
2018-03-28T00:10:46.801Z,8.50
2018-03-28T00:13:12.585Z,8.49
2018-03-28T00:15:38.342Z,8.51
2018-03-28T00:18:04.109Z,8.52
2018-03-28T00:20:29.862Z,8.53
2018-03-28T00:22:56.201Z,8.55
2018-03-28T00:25:21.977Z,8.60
2018-03-28T00:27:47.728Z,8.59
2018-03-28T00:30:13.470Z,8.62
2018-03-28T00:32:39.260Z,8.63
2018-03-28T00:35:05.008Z,8.62
2018-03-28T00:37:30.776Z,8.61
2018-03-28T00:39:56.558Z,8.61
2018-03-28T00:42:22.365Z,8.58
2018-03-28T00:44:48.077Z,8.60
2018-03-28T00:47:13.870Z,8.61
2018-03-28T00:49:39.617Z,8.62
2018-03-28T00:52:05.821Z,8.59
2018-03-28T00:54:31.592Z,8.57
2018-03-28T00:56:57.342Z,8.51
2018-03-28T00:59:23.094Z,8.54
2018-03-28T01:01:48.976Z,8.51
2018-03-28T01:04:14.717Z,8.54
2018-03-28T01:06:40.449Z,8.47
2018-03-28T01:09:06.767Z,8.57
2018-03-28T01:11:32.513Z,8.57
2018-03-28T01:13:58.260Z,8.39
2018-03-28T01:16:24.016Z,8.41
2018-03-28T01:18:49.770Z,8.54
2018-03-28T01:21:15.553Z,8.57
2018-03-28T01:23:41.325Z,8.63
2018-03-28T01:26:07.388Z,8.57
2018-03-28T01:28:33.133Z,8.48
2018-03-28T01:30:58.909Z,8.49
2018-03-28T01:33:24.648Z,8.52
2018-03-28T01:35:50.417Z,8.53
2018-03-28T01:38:16.188Z,8.49
2018-03-28T01:40:41.937Z,8.49
2018-03-28T01:43:07.708Z,8.47
2018-03-28T01:45:33.472Z,8.43
2018-03-28T01:47:59.237Z,8.45
2018-03-28T01:50:24.991Z,8.39
2018-03-28T01:52:51.156Z,8.31
2018-03-28T01:55:16.936Z,8.27
2018-03-28T01:57:42.688Z,8.29
2018-03-28T02:00:08.489Z,8.32
2018-03-28T02:02:34.233Z,8.34
2018-03-28T02:04:59.983Z,8.32
2018-03-28T02:07:25.745Z,8.30
2018-03-28T02:09:51.553Z,8.28
2018-03-28T02:12:17.308Z,8.24
2018-03-28T02:14:43.101Z,8.23
2018-03-28T02:17:08.870Z,8.24
2018-03-28T02:19:34.614Z,8.20
2018-03-28T02:22:00.372Z,8.21
2018-03-28T02:24:26.311Z,8.23
2018-03-28T02:26:52.061Z,8.21
2018-03-28T02:29:17.846Z,8.18
2018-03-28T02:31:43.599Z,8.22
2018-03-28T02:34:09.354Z,8.22
2018-03-28T02:36:35.180Z,8.27
2018-03-28T02:39:00.917Z,8.26
2018-03-28T02:41:26.664Z,8.23
2018-03-28T02:43:52.458Z,8.29
2018-03-28T02:46:18.205Z,8.33
2018-03-28T02:48:44.432Z,8.35
2018-03-28T02:51:10.238Z,8.32
2018-03-28T02:53:36.018Z,8.28
2018-03-28T02:56:01.774Z,8.24
2018-03-28T02:58:27.558Z,8.24
2018-03-28T03:00:53.314Z,8.14
2018-03-28T03:03:19.061Z,8.18
2018-03-28T03:05:45.269Z,8.13
2018-03-28T03:08:11.022Z,8.12
2018-03-28T03:10:36.793Z,8.03
2018-03-28T03:13:02.593Z,7.97
2018-03-28T03:15:28.361Z,7.94
2018-03-28T03:17:54.130Z,7.94
2018-03-28T03:20:19.903Z,7.93
2018-03-28T03:22:46.064Z,7.87
2018-03-28T03:25:11.827Z,7.87
2018-03-28T03:27:37.601Z,7.86
2018-03-28T03:30:03.354Z,7.88
2018-03-28T03:32:29.114Z,7.93
2018-03-28T03:34:54.872Z,7.99
2018-03-28T03:37:20.621Z,8.03
2018-03-28T03:39:46.402Z,8.08
2018-03-28T03:42:12.161Z,8.04
2018-03-28T03:44:37.937Z,8.04
2018-03-28T03:47:03.722Z,8.04
2018-03-28T03:49:29.829Z,8.02
2018-03-28T03:51:55.597Z,7.88
2018-03-28T03:54:21.362Z,8.03
2018-03-28T03:56:47.110Z,7.99
2018-03-28T03:59:12.861Z,8.01
2018-03-28T04:01:38.630Z,8.04
2018-03-28T04:04:04.412Z,8.06
2018-03-28T04:06:30.497Z,8.06
2018-03-28T04:08:56.321Z,7.92
2018-03-28T04:11:22.071Z,7.86
2018-03-28T04:13:47.817Z,7.83
2018-03-28T04:16:13.604Z,7.77
2018-03-28T04:18:39.349Z,7.77
2018-03-28T04:21:05.085Z,7.81
2018-03-28T04:23:30.838Z,7.82
2018-03-28T04:25:56.593Z,7.83
2018-03-28T04:28:22.880Z,7.85
2018-03-28T04:30:48.653Z,7.89
2018-03-28T04:33:14.384Z,7.81
2018-03-28T04:35:40.129Z,7.81
2018-03-28T04:38:05.899Z,7.80
2018-03-28T04:40:31.641Z,7.83
2018-03-28T04:42:57.377Z,7.82
2018-03-28T04:45:23.141Z,7.67
2018-03-28T04:47:48.892Z,7.56
2018-03-28T04:50:14.624Z,7.40
2018-03-28T04:52:40.372Z,7.38
2018-03-28T04:55:06.570Z,7.30
2018-03-28T04:57:32.325Z,7.29
2018-03-28T04:59:58.089Z,7.29
2018-03-28T05:02:23.833Z,7.19
2018-03-28T05:04:49.588Z,7.17
2018-03-28T05:07:15.375Z,7.17
2018-03-28T05:09:41.124Z,7.05
2018-03-28T05:12:06.881Z,7.02
2018-03-28T05:14:32.660Z,7.07
2018-03-28T05:16:58.406Z,7.12
2018-03-28T05:19:24.160Z,6.98
2018-03-28T05:21:49.921Z,7.04
2018-03-28T05:24:15.704Z,7.05
2018-03-28T05:26:41.797Z,7.08
2018-03-28T05:29:07.581Z,6.96
2018-03-28T05:31:33.319Z,7.00
2018-03-28T05:33:59.084Z,6.97
2018-03-28T05:36:41.145Z,6.95
2018-03-28T05:39:08.808Z,6.88
2018-03-28T05:41:34.565Z,6.63
2018-03-28T05:44:00.337Z,6.66
2018-03-28T05:46:26.093Z,6.66
2018-03-28T05:48:51.885Z,6.64
2018-03-28T05:51:17.627Z,6.67
2018-03-28T05:53:43.382Z,6.71
2018-03-28T05:56:09.174Z,6.77
2018-03-28T05:58:35.304Z,6.83
2018-03-28T06:01:01.095Z,6.85
2018-03-28T06:03:26.853Z,6.85
2018-03-28T06:05:52.602Z,6.74
2018-03-28T06:08:18.406Z,6.61
2018-03-28T06:10:44.193Z,6.53
2018-03-28T06:13:09.962Z,6.49
2018-03-28T06:15:35.733Z,6.52
2018-03-28T06:18:01.536Z,6.43
2018-03-28T06:20:27.295Z,6.44
2018-03-28T06:22:53.065Z,6.47
2018-03-28T06:25:19.274Z,6.48
2018-03-28T06:27:45.055Z,6.54
2018-03-28T06:30:10.811Z,6.54
2018-03-28T06:32:36.589Z,6.56
2018-03-28T06:35:02.334Z,6.59
2018-03-28T06:37:28.109Z,6.50
2018-03-28T06:39:53.885Z,6.41
2018-03-28T06:42:19.640Z,6.46
2018-03-28T06:44:45.397Z,6.47
2018-03-28T06:47:11.174Z,6.44
2018-03-28T06:49:36.912Z,6.41
2018-03-28T06:52:02.686Z,6.34
2018-03-28T06:54:28.801Z,6.34
2018-03-28T06:56:54.608Z,6.40
2018-03-28T06:59:20.354Z,6.40
2018-03-28T07:01:46.138Z,6.37
2018-03-28T07:04:11.894Z,6.42
2018-03-28T07:06:37.653Z,6.43
2018-03-28T07:09:03.418Z,6.45
2018-03-28T07:11:29.194Z,6.48
2018-03-28T07:13:54.989Z,6.45
2018-03-28T07:16:20.746Z,6.37
2018-03-28T07:18:46.514Z,6.34
2018-03-28T07:21:12.281Z,6.29
2018-03-28T07:23:38.506Z,6.20
2018-03-28T07:26:04.268Z,6.16
2018-03-28T07:28:30.027Z,6.27
2018-03-28T07:30:55.777Z,6.37
2018-03-28T07:33:21.553Z,6.36
2018-03-28T07:35:47.317Z,6.31
2018-03-28T07:38:13.069Z,6.31
2018-03-28T07:40:38.830Z,6.35
2018-03-28T07:43:04.597Z,6.32
2018-03-28T07:45:30.340Z,6.42
2018-03-28T07:47:56.131Z,6.48
2018-03-28T07:50:22.229Z,6.53
2018-03-28T07:52:47.974Z,6.56
2018-03-28T07:55:13.748Z,6.44
2018-03-28T07:57:39.521Z,6.45
2018-03-28T08:00:05.269Z,6.51
2018-03-28T08:02:31.009Z,6.61
2018-03-28T08:04:56.776Z,6.73
2018-03-28T08:07:22.520Z,6.82
2018-03-28T08:09:48.276Z,6.86
2018-03-28T08:12:14.044Z,6.77
2018-03-28T08:14:39.796Z,6.94
2018-03-28T08:17:05.526Z,6.92
2018-03-28T08:19:31.281Z,6.96
2018-03-28T08:21:57.024Z,6.88
2018-03-28T08:24:23.074Z,6.88
2018-03-28T08:26:48.848Z,6.92
2018-03-28T08:29:14.601Z,6.94
2018-03-28T08:31:40.342Z,6.88
2018-03-28T08:34:06.153Z,6.89
2018-03-28T08:36:31.900Z,6.77
2018-03-28T08:38:57.673Z,6.98
2018-03-28T08:41:23.444Z,7.10
2018-03-28T08:43:49.193Z,7.17
2018-03-28T08:46:14.949Z,7.16
2018-03-28T08:48:40.725Z,7.14
2018-03-28T08:51:06.825Z,7.14
2018-03-28T08:53:32.570Z,7.17
2018-03-28T08:55:58.455Z,7.19
2018-03-28T08:58:24.237Z,7.21
2018-03-28T09:00:50.002Z,7.24
2018-03-28T09:03:15.809Z,7.18
2018-03-28T09:05:41.577Z,7.17
2018-03-28T09:08:07.361Z,7.18
2018-03-28T09:10:33.129Z,7.18
2018-03-28T09:12:58.898Z,7.20
2018-03-28T09:15:24.641Z,7.20
2018-03-28T09:17:50.429Z,7.25
2018-03-28T09:20:16.177Z,7.31
2018-03-28T09:22:42.267Z,7.32
2018-03-28T09:25:08.041Z,7.42
2018-03-28T09:27:33.800Z,7.31
2018-03-28T09:29:59.550Z,7.22
2018-03-28T09:32:25.333Z,7.24
2018-03-28T09:34:51.111Z,7.23
2018-03-28T09:37:16.829Z,7.22
2018-03-28T09:39:42.857Z,7.13
2018-03-28T09:42:08.615Z,7.15
2018-03-28T09:44:34.368Z,7.24
2018-03-28T09:47:00.135Z,7.31
2018-03-28T09:49:25.912Z,7.31
2018-03-28T09:51:51.660Z,7.28
2018-03-28T09:54:17.434Z,7.24
2018-03-28T09:56:43.459Z,7.25
2018-03-28T09:59:09.216Z,7.31
2018-03-28T10:01:34.988Z,7.30
2018-03-28T10:04:06.863Z,7.34
2018-03-28T10:06:32.627Z,7.33
2018-03-28T10:08:58.369Z,7.34
2018-03-28T10:11:24.121Z,7.39
2018-03-28T10:13:49.913Z,7.38
2018-03-28T10:16:15.654Z,7.31
2018-03-28T10:18:41.384Z,7.22
2018-03-28T10:21:07.146Z,7.22
2018-03-28T10:23:32.905Z,7.22
2018-03-28T10:25:59.033Z,7.16
2018-03-28T10:28:24.809Z,7.12
2018-03-28T10:30:50.558Z,7.08
2018-03-28T10:33:16.310Z,7.17
2018-03-28T10:35:42.074Z,7.29
2018-03-28T10:38:07.820Z,7.29
2018-03-28T10:40:33.569Z,7.39
2018-03-28T10:42:59.569Z,7.47
2018-03-28T10:45:25.314Z,7.34
2018-03-28T10:47:51.068Z,7.44
2018-03-28T10:50:16.837Z,7.28
2018-03-28T10:52:42.593Z,7.35
2018-03-28T10:55:08.328Z,7.52
2018-03-28T10:57:34.089Z,7.65
2018-03-28T10:59:59.822Z,7.69
2018-03-28T11:02:25.829Z,7.72
2018-03-28T11:04:51.597Z,7.62
2018-03-28T11:07:17.350Z,7.63
2018-03-28T11:09:43.094Z,7.66
2018-03-28T11:12:08.861Z,7.66
2018-03-28T11:14:34.612Z,7.65
2018-03-28T11:17:00.373Z,7.57
2018-03-28T11:19:26.135Z,7.55
2018-03-28T11:21:51.922Z,7.54
2018-03-28T11:24:17.715Z,7.56
2018-03-28T11:26:43.475Z,7.63
2018-03-28T11:29:09.225Z,7.59
2018-03-28T11:31:35.309Z,7.53
2018-03-28T11:34:01.073Z,7.45
2018-03-28T11:36:26.837Z,7.54
2018-03-28T11:38:52.604Z,7.54
2018-03-28T11:41:18.648Z,7.60
2018-03-28T11:43:44.449Z,7.62
2018-03-28T11:46:10.237Z,7.69
2018-03-28T11:48:35.981Z,7.70
2018-03-28T11:51:01.741Z,7.71
2018-03-28T11:53:29.739Z,7.67
2018-03-28T11:55:55.935Z,7.73
2018-03-28T11:58:21.906Z,7.73
2018-03-28T12:00:47.661Z,7.71
2018-03-28T12:03:13.409Z,7.60
2018-03-28T12:05:39.185Z,7.54
2018-03-28T12:08:04.938Z,7.57
2018-03-28T12:10:30.715Z,7.65
2018-03-28T12:12:56.490Z,7.71
2018-03-28T12:15:22.228Z,7.69
2018-03-28T12:17:47.967Z,7.74
2018-03-28T12:20:13.897Z,7.79
2018-03-28T12:22:39.649Z,7.79
2018-03-28T12:25:05.938Z,7.80
2018-03-28T12:27:31.701Z,7.78
2018-03-28T12:29:57.464Z,7.80
2018-03-28T12:32:23.241Z,7.87
2018-03-28T12:34:48.996Z,7.85
2018-03-28T12:37:14.741Z,7.70
2018-03-28T12:39:40.493Z,7.63
2018-03-28T12:42:06.332Z,7.58
2018-03-28T12:44:32.012Z,7.58
2018-03-28T12:46:57.763Z,7.41
2018-03-28T12:49:23.543Z,7.35
2018-03-28T12:51:49.301Z,7.42
2018-03-28T12:54:15.599Z,7.50
2018-03-28T12:56:41.369Z,7.52
2018-03-28T12:59:07.114Z,7.55
2018-03-28T13:01:32.890Z,7.57
2018-03-28T13:03:58.673Z,7.55
2018-03-28T13:06:24.432Z,7.47
2018-03-28T13:08:50.171Z,7.45
2018-03-28T13:11:16.141Z,7.35
2018-03-28T13:13:41.893Z,7.39
2018-03-28T13:16:07.645Z,7.43
2018-03-28T13:18:33.405Z,7.51
2018-03-28T13:20:59.157Z,7.43
2018-03-28T13:23:24.895Z,7.47
2018-03-28T13:25:50.681Z,7.53
2018-03-28T13:28:16.865Z,7.50
2018-03-28T13:30:42.612Z,7.53
2018-03-28T13:33:08.377Z,7.47
2018-03-28T13:35:34.129Z,7.46
2018-03-28T13:37:59.879Z,7.44
2018-03-28T13:40:25.656Z,7.30
2018-03-28T13:42:51.448Z,7.27
2018-03-28T13:45:17.306Z,7.17
2018-03-28T13:47:43.056Z,7.10
2018-03-28T13:50:08.797Z,7.09
2018-03-28T13:52:34.557Z,7.10
2018-03-28T13:55:00.571Z,7.17
2018-03-28T13:57:26.325Z,7.21
2018-03-28T13:59:52.078Z,7.14
2018-03-28T14:02:17.819Z,7.16
2018-03-28T14:04:43.577Z,7.22
2018-03-28T14:07:09.353Z,7.23
2018-03-28T14:09:35.097Z,7.28
2018-03-28T14:12:00.832Z,7.31
2018-03-28T14:14:26.584Z,7.40
2018-03-28T14:16:52.332Z,7.30
2018-03-28T14:19:18.084Z,7.30
2018-03-28T14:21:43.884Z,7.31
2018-03-28T14:24:09.626Z,7.20
2018-03-28T14:26:35.710Z,7.16
2018-03-28T14:29:01.481Z,7.14
2018-03-28T14:31:27.245Z,7.15
2018-03-28T14:33:53.002Z,7.11
2018-03-28T14:36:18.821Z,7.10
2018-03-28T14:38:44.557Z,7.14
2018-03-28T14:41:10.307Z,7.16
2018-03-28T14:43:36.069Z,7.10
2018-03-28T14:46:01.865Z,7.19
2018-03-28T14:48:27.657Z,7.25
2018-03-28T14:50:53.401Z,7.09
2018-03-28T14:53:19.146Z,6.95
2018-03-28T14:55:44.940Z,6.88
2018-03-28T14:58:11.040Z,6.95
2018-03-28T15:00:36.788Z,7.01
2018-03-28T15:03:02.561Z,7.04
2018-03-28T15:05:28.309Z,7.07
2018-03-28T15:07:54.069Z,7.07
2018-03-28T15:10:19.837Z,7.09
2018-03-28T15:12:45.598Z,7.12
2018-03-28T15:15:11.359Z,7.13
2018-03-28T15:17:37.105Z,7.06
2018-03-28T15:20:02.865Z,7.02
2018-03-28T15:22:28.660Z,6.97
2018-03-28T15:24:54.864Z,6.92
2018-03-28T15:27:20.633Z,6.86
2018-03-28T15:29:46.395Z,6.82
2018-03-28T15:32:12.148Z,6.89
2018-03-28T15:34:37.908Z,6.91
2018-03-28T15:37:03.688Z,6.83
2018-03-28T15:39:29.467Z,6.81
2018-03-28T15:41:55.461Z,6.86
2018-03-28T15:44:21.224Z,6.87
2018-03-28T15:46:46.980Z,6.86
2018-03-28T15:49:12.745Z,6.84
2018-03-28T15:51:38.497Z,6.79
2018-03-28T15:54:04.261Z,6.83
2018-03-28T15:56:30.041Z,6.83
2018-03-28T15:58:55.777Z,6.77
2018-03-28T16:01:22.043Z,6.75
2018-03-28T16:03:47.827Z,6.76
2018-03-28T16:06:13.580Z,6.74
2018-03-28T16:08:39.346Z,6.77
2018-03-28T16:11:05.112Z,6.74
2018-03-28T16:13:30.871Z,6.79
2018-03-28T16:15:56.652Z,6.86
2018-03-28T16:18:22.403Z,6.85
2018-03-28T16:20:48.142Z,6.77
2018-03-28T16:23:13.916Z,6.77
2018-03-28T16:25:40.009Z,6.81
2018-03-28T16:28:05.764Z,6.69
2018-03-28T16:30:31.544Z,6.77
2018-03-28T16:32:57.314Z,6.76
2018-03-28T16:35:23.060Z,6.75
2018-03-28T16:37:48.837Z,6.70
2018-03-28T16:40:14.605Z,6.72
2018-03-28T16:42:40.619Z,6.73
2018-03-28T16:45:06.391Z,6.64
2018-03-28T16:47:32.200Z,6.62
2018-03-28T16:49:57.926Z,6.58
2018-03-28T16:52:23.705Z,6.57
2018-03-28T16:54:49.467Z,6.60
2018-03-28T16:57:15.248Z,6.63
2018-03-28T16:59:40.996Z,6.63
2018-03-28T17:02:07.085Z,6.59
2018-03-28T17:04:32.897Z,6.53
2018-03-28T17:06:58.707Z,6.51
2018-03-28T17:09:24.466Z,6.46
2018-03-28T17:11:50.229Z,6.43
2018-03-28T17:14:15.989Z,6.42
2018-03-28T17:16:41.760Z,6.39
2018-03-28T17:19:07.553Z,6.36
2018-03-28T17:21:33.321Z,6.40
2018-03-28T17:23:59.073Z,6.41
2018-03-28T17:26:24.863Z,6.43
2018-03-28T17:28:50.609Z,6.38
2018-03-28T17:31:16.625Z,6.40
2018-03-28T17:33:42.390Z,6.38
2018-03-28T17:36:08.176Z,6.31
2018-03-28T17:38:40.124Z,6.28
2018-03-28T17:41:05.865Z,6.24
2018-03-28T17:43:31.632Z,6.25
2018-03-28T17:45:57.421Z,6.27
2018-03-28T17:48:23.169Z,6.27
2018-03-28T17:50:48.929Z,6.19
2018-03-28T17:53:14.689Z,6.14
2018-03-28T17:55:40.437Z,6.14
2018-03-28T17:58:06.577Z,6.20
2018-03-28T18:00:32.352Z,6.18
2018-03-28T18:02:58.100Z,6.18
2018-03-28T18:05:23.857Z,6.10
2018-03-28T18:07:49.621Z,6.00
2018-03-28T18:10:15.381Z,5.97
2018-03-28T18:12:41.137Z,5.89
2018-03-28T18:15:06.916Z,5.90
2018-03-28T18:17:32.681Z,5.85
2018-03-28T18:19:58.424Z,5.80
2018-03-28T18:22:24.204Z,5.82
2018-03-28T18:24:50.471Z,5.87
2018-03-28T18:27:16.237Z,5.82
2018-03-28T18:29:41.996Z,5.65
2018-03-28T18:32:07.761Z,5.64
2018-03-28T18:34:33.533Z,5.56
2018-03-28T18:36:59.300Z,5.48
2018-03-28T18:39:25.049Z,5.47
2018-03-28T18:41:50.837Z,5.48
2018-03-28T18:44:16.601Z,5.43
2018-03-28T18:46:42.396Z,5.43
2018-03-28T18:49:08.165Z,5.50
2018-03-28T18:51:33.946Z,5.55
2018-03-28T18:53:59.760Z,5.57
2018-03-28T18:56:25.913Z,5.52
2018-03-28T18:58:51.668Z,5.34
2018-03-28T19:01:17.442Z,5.25
2018-03-28T19:03:43.217Z,5.28
2018-03-28T19:06:08.987Z,5.10
2018-03-28T19:08:34.749Z,5.23
2018-03-28T19:11:00.533Z,5.24
2018-03-28T19:13:26.281Z,5.23
2018-03-28T19:15:52.091Z,5.30
2018-03-28T19:18:17.916Z,5.21
2018-03-28T19:20:43.721Z,5.16
2018-03-28T19:23:09.480Z,5.16
2018-03-28T19:25:35.846Z,5.18
2018-03-28T19:28:01.606Z,5.14
2018-03-28T19:30:27.425Z,5.12
2018-03-28T19:32:53.189Z,5.00
2018-03-28T19:35:18.962Z,5.08
2018-03-28T19:37:44.709Z,4.91
2018-03-28T19:40:10.480Z,4.81
2018-03-28T19:42:36.232Z,4.71
2018-03-28T19:45:02.001Z,4.83
2018-03-28T19:47:27.772Z,4.85
2018-03-28T19:49:53.525Z,4.89
2018-03-28T19:52:19.745Z,4.87
2018-03-28T19:54:45.514Z,4.85
2018-03-28T19:57:11.265Z,4.76
2018-03-28T19:59:37.009Z,4.75
2018-03-28T20:02:02.786Z,4.78
2018-03-28T20:04:28.533Z,4.78
2018-03-28T20:06:54.294Z,4.82
2018-03-28T20:09:20.054Z,4.76
2018-03-28T20:11:45.792Z,4.69
2018-03-28T20:14:11.546Z,4.69
2018-03-28T20:16:37.317Z,4.57
2018-03-28T20:19:03.538Z,4.56
2018-03-28T20:21:29.309Z,4.62
2018-03-28T20:23:55.069Z,4.63
2018-03-28T20:26:20.805Z,4.52
2018-03-28T20:28:46.567Z,4.55
2018-03-28T20:31:12.326Z,4.59
2018-03-28T20:33:38.074Z,4.58
2018-03-28T20:36:03.845Z,4.59
2018-03-28T20:38:29.614Z,4.63
2018-03-28T20:40:55.363Z,4.63
2018-03-28T20:43:21.135Z,4.59
2018-03-28T20:45:46.914Z,4.62
2018-03-28T20:48:12.646Z,4.65
2018-03-28T20:50:38.869Z,4.69
2018-03-28T20:53:04.625Z,4.62
2018-03-28T20:55:30.370Z,4.63
2018-03-28T20:57:56.120Z,4.68
2018-03-28T21:00:21.877Z,4.66
2018-03-28T21:02:47.622Z,4.61
2018-03-28T21:05:13.381Z,4.61
2018-03-28T21:07:43.015Z,4.48
2018-03-28T21:10:08.777Z,4.45
2018-03-28T21:12:34.545Z,4.39
2018-03-28T21:15:00.315Z,4.36
2018-03-28T21:17:26.468Z,4.34
2018-03-28T21:19:52.227Z,4.32
2018-03-28T21:22:18.033Z,4.38
2018-03-28T21:24:43.745Z,4.26
2018-03-28T21:27:09.519Z,4.33
2018-03-28T21:29:35.286Z,4.34
2018-03-28T21:32:01.049Z,4.33
2018-03-28T21:34:27.409Z,4.34
2018-03-28T21:36:53.179Z,4.35
2018-03-28T21:39:18.936Z,4.39
2018-03-28T21:41:44.698Z,4.47
2018-03-28T21:44:10.472Z,4.56
2018-03-28T21:46:36.229Z,4.49
2018-03-28T21:49:01.990Z,4.50
2018-03-28T21:51:27.761Z,4.48
2018-03-28T21:53:54.006Z,4.36
2018-03-28T21:56:19.772Z,4.31
2018-03-28T21:58:45.552Z,4.26
2018-03-28T22:01:11.308Z,4.22
2018-03-28T22:03:37.072Z,4.22
2018-03-28T22:06:02.850Z,4.24
2018-03-28T22:08:28.588Z,4.24
2018-03-28T22:10:54.347Z,4.34
2018-03-28T22:13:20.101Z,4.36
2018-03-28T22:15:45.870Z,4.39
2018-03-28T22:18:11.664Z,4.35
2018-03-28T22:20:37.410Z,4.34
2018-03-28T22:23:03.417Z,4.36
2018-03-28T22:25:29.173Z,4.42
2018-03-28T22:27:55.771Z,4.41
2018-03-28T22:30:21.552Z,4.44
2018-03-28T22:32:47.299Z,4.51
2018-03-28T22:35:13.055Z,4.50
2018-03-28T22:37:38.813Z,4.49
2018-03-28T22:40:04.761Z,4.56
2018-03-28T22:42:30.505Z,4.63
2018-03-28T22:44:56.283Z,4.70
2018-03-28T22:47:22.050Z,4.75
2018-03-28T22:49:47.799Z,4.73
2018-03-28T22:52:13.590Z,4.70
2018-03-28T22:54:39.346Z,4.70
2018-03-28T22:57:05.101Z,4.70
2018-03-28T22:59:31.257Z,4.72
2018-03-28T23:01:57.013Z,4.78
2018-03-28T23:04:22.761Z,4.77
2018-03-28T23:06:48.535Z,4.76
2018-03-28T23:09:14.287Z,4.76
2018-03-28T23:11:40.057Z,4.76
2018-03-28T23:14:05.828Z,4.83
2018-03-28T23:16:31.661Z,4.79
2018-03-28T23:18:57.425Z,4.67
2018-03-28T23:21:23.189Z,4.65
2018-03-28T23:23:48.937Z,4.64
2018-03-28T23:26:14.713Z,4.72
2018-03-28T23:28:40.491Z,4.84
2018-03-28T23:31:13.481Z,4.92
2018-03-28T23:33:39.252Z,4.95
2018-03-28T23:36:04.997Z,4.99
2018-03-28T23:38:30.754Z,4.93
2018-03-28T23:40:56.532Z,5.00
2018-03-28T23:43:22.283Z,4.98
2018-03-28T23:45:48.058Z,4.96
2018-03-28T23:48:13.806Z,4.99
2018-03-28T23:50:39.565Z,4.94
2018-03-28T23:53:05.341Z,4.98
2018-03-28T23:55:31.245Z,5.05
2018-03-28T23:57:56.993Z,5.00
